Time;durP1;ratioP1;P1;durP2;ratioP2;P2;SDS_P1;SDS_P2;PMS_P1;PMS_P2;Temp;Humidity;BMP_temperature;BMP_pressure;BME280_temperature;BME280_humidity;BME280_pressure;Samples;Min_cycle;Max_cycle;Signal;HPM_P1;HPM_P2
2022/12/27 00:01:34;;;;;;;1.87;1.30;;;6.90;99.90;;;;;;5045913;28;20029;-90
2022/12/27 00:04:00;;;;;;;2.00;1.27;;;6.90;99.90;;;;;;5043102;28;20079;-90
2022/12/27 00:06:27;;;;;;;2.20;1.20;;;6.90;99.90;;;;;;5051669;28;20021;-90
2022/12/27 00:08:53;;;;;;;2.40;1.17;;;6.90;99.90;;;;;;5046826;28;20033;-90
2022/12/27 00:11:21;;;;;;;2.90;1.10;;;6.90;99.90;;;;;;5055736;28;20388;-83
2022/12/27 00:13:47;;;;;;;1.83;1.13;;;6.90;99.90;;;;;;5046886;28;20088;-83
2022/12/27 00:16:15;;;;;;;2.00;1.17;;;6.90;99.90;;;;;;5051521;28;20088;-83
2022/12/27 00:18:42;;;;;;;1.60;0.90;;;6.90;99.90;;;;;;5056111;28;20052;-84
2022/12/27 00:21:10;;;;;;;1.93;1.00;;;6.90;99.90;;;;;;5047081;28;20101;-83
2022/12/27 00:23:38;;;;;;;1.93;1.00;;;6.90;99.90;;;;;;5049292;28;20469;-83
2022/12/27 00:26:07;;;;;;;3.33;1.17;;;6.90;99.90;;;;;;5037961;28;20029;-83
2022/12/27 00:28:34;;;;;;;2.10;0.90;;;6.90;99.90;;;;;;5052346;28;20416;-84
2022/12/27 00:31:00;;;;;;;1.20;0.90;;;6.80;99.90;;;;;;5030720;28;20390;-83
2022/12/27 00:33:28;;;;;;;1.07;0.90;;;6.80;99.90;;;;;;5045885;28;20359;-84
2022/12/27 00:35:54;;;;;;;2.20;1.27;;;6.80;99.90;;;;;;5043656;28;20155;-83
2022/12/27 00:38:20;;;;;;;1.50;0.97;;;6.70;99.90;;;;;;5055290;28;20068;-83
2022/12/27 00:40:46;;;;;;;1.83;1.10;;;6.70;99.90;;;;;;5055068;28;20511;-84
2022/12/27 00:43:11;;;;;;;1.73;1.00;;;6.70;99.90;;;;;;5037093;28;20390;-83
2022/12/27 00:45:37;;;;;;;2.73;1.07;;;6.60;99.90;;;;;;5055086;28;20063;-84
2022/12/27 00:48:02;;;;;;;2.07;1.10;;;6.60;99.90;;;;;;5055661;28;20029;-84
2022/12/27 00:50:28;;;;;;;2.10;1.10;;;6.60;99.90;;;;;;5055017;28;20036;-84
2022/12/27 00:52:54;;;;;;;2.10;0.93;;;6.50;99.90;;;;;;5054975;28;20116;-83
2022/12/27 00:55:19;;;;;;;1.83;1.07;;;6.50;99.90;;;;;;5055177;28;20104;-84
2022/12/27 00:57:45;;;;;;;2.80;1.40;;;6.40;99.90;;;;;;5054924;28;20021;-83
2022/12/27 01:00:11;;;;;;;3.73;1.30;;;6.40;99.90;;;;;;5054915;28;20032;-84
2022/12/27 01:02:37;;;;;;;2.57;1.00;;;6.30;99.90;;;;;;5055058;28;20390;-84
2022/12/27 01:05:02;;;;;;;2.53;1.40;;;6.30;99.90;;;;;;5054849;28;20059;-83
2022/12/27 01:07:28;;;;;;;1.57;1.03;;;6.20;99.90;;;;;;5053757;28;20021;-84
2022/12/27 01:09:54;;;;;;;4.23;1.33;;;6.20;99.90;;;;;;5050297;28;20477;-83
2022/12/27 01:12:19;;;;;;;2.50;1.10;;;6.10;99.90;;;;;;5045293;28;20021;-84
2022/12/27 01:14:45;;;;;;;2.90;1.00;;;6.10;99.90;;;;;;5035129;28;20076;-83
2022/12/27 01:17:10;;;;;;;1.93;1.10;;;6.10;99.90;;;;;;5052003;28;20029;-84
2022/12/27 01:19:36;;;;;;;3.40;1.30;;;6.00;99.90;;;;;;5053260;28;20037;-84
2022/12/27 01:22:03;;;;;;;1.67;1.10;;;6.00;99.90;;;;;;5054484;28;20017;-83
2022/12/27 01:24:29;;;;;;;2.87;1.10;;;5.90;99.90;;;;;;5054389;28;20097;-83
2022/12/27 01:26:54;;;;;;;2.93;1.30;;;6.00;99.90;;;;;;5049710;28;20108;-83
2022/12/27 01:29:20;;;;;;;2.53;1.30;;;6.00;99.90;;;;;;5026367;28;20473;-83
2022/12/27 01:31:47;;;;;;;4.30;1.50;;;5.90;99.90;;;;;;5054220;28;20032;-83
2022/12/27 01:34:13;;;;;;;2.20;1.20;;;5.90;99.90;;;;;;5055118;28;20025;-84
2022/12/27 01:36:39;;;;;;;3.00;1.20;;;5.80;99.90;;;;;;5054097;28;20028;-83
2022/12/27 01:39:04;;;;;;;2.20;1.10;;;5.70;99.90;;;;;;5054156;28;20035;-83
2022/12/27 01:44:42;;;;;;;2.80;1.40;;;5.60;99.90;;;;;;5051090;28;20375;-83
2022/12/27 01:47:44;;;;;;;2.07;1.20;;;5.60;99.90;;;;;;5024516;28;20013;-83
2022/12/27 01:50:22;;;;;;;3.20;1.27;;;5.60;99.90;;;;;;5048918;28;20009;-82
2022/12/27 01:53:10;;;;;;;3.87;1.60;;;5.60;99.90;;;;;;5045607;28;20017;-83
2022/12/27 01:55:50;;;;;;;5.23;1.40;;;5.60;99.90;;;;;;5054794;28;20021;-82
2022/12/27 01:58:35;;;;;;;3.93;1.30;;;5.60;99.90;;;;;;5054059;28;20025;-82
2022/12/27 02:01:02;;;;;;;1.73;1.20;;;5.60;99.90;;;;;;5054042;28;20021;-83
2022/12/27 02:03:42;;;;;;;2.10;1.20;;;5.60;99.90;;;;;;5053912;28;20030;-83
2022/12/27 02:06:10;;;;;;;3.67;1.47;;;5.60;99.90;;;;;;5053934;28;20021;-83
2022/12/27 02:08:51;;;;;;;2.37;1.20;;;5.60;99.90;;;;;;5053604;28;20017;-83
2022/12/27 02:11:49;;;;;;;3.23;1.40;;;5.60;99.90;;;;;;5053739;28;20056;-83
2022/12/27 02:14:05;;;;;;;3.40;1.20;;;5.60;99.90;;;;;;5053238;28;20052;-83
2022/12/27 02:16:30;;;;;;;3.67;1.37;;;5.60;99.90;;;;;;5053449;28;20025;-83
2022/12/27 02:18:56;;;;;;;3.00;1.50;;;5.60;99.90;;;;;;5053592;28;20531;-83
2022/12/27 02:21:24;;;;;;;3.87;1.53;;;5.60;99.90;;;;;;5053566;28;20024;-83
2022/12/27 02:24:02;;;;;;;4.50;1.50;;;5.60;99.90;;;;;;5053191;28;20112;-83
2022/12/27 02:26:52;;;;;;;2.80;1.17;;;5.60;99.90;;;;;;5051846;28;20052;-83
2022/12/27 02:29:48;;;;;;;5.03;1.70;;;5.60;99.90;;;;;;5053318;28;20057;-83
2022/12/27 02:32:27;;;;;;;;;;;5.50;99.90;;;;;;5053582;28;20021;-83
2022/12/27 02:35:08;;;;;;;3.50;1.40;;;5.50;99.90;;;;;;5032043;28;20000;-83
2022/12/27 02:37:55;;;;;;;5.50;1.40;;;5.60;99.90;;;;;;5033182;28;20077;-83
2022/12/27 02:54:58;;;;;;;2.50;1.37;;;5.60;99.90;;;;;;5047032;28;20042;-83
2022/12/27 02:57:40;;;;;;;3.73;1.40;;;5.50;99.90;;;;;;5052861;28;20036;-83
2022/12/27 03:03:22;;;;;;;3.13;1.20;;;5.30;99.90;;;;;;5046161;28;20040;-84
2022/12/27 03:09:11;;;;;;;2.78;1.27;;;5.30;99.90;;;;;;5047394;28;20463;-83
2022/12/27 03:17:34;;;;;;;3.67;1.27;;;5.10;99.90;;;;;;5046439;28;20447;-84
2022/12/27 03:25:39;;;;;;;3.60;1.27;;;5.00;99.90;;;;;;5046699;28;20044;-84
2022/12/27 03:34:03;;;;;;;4.73;1.40;;;4.90;99.90;;;;;;5044937;28;20040;-83
2022/12/27 03:39:32;;;;;;;2.40;1.50;;;4.80;99.90;;;;;;5046132;28;20044;-84
2022/12/27 03:44:58;;;;;;;2.50;1.50;;;4.60;99.90;;;;;;5050290;28;20039;-84
2022/12/27 03:47:36;;;;;;;4.97;1.40;;;4.60;99.90;;;;;;5050807;28;20025;-83
2022/12/27 03:50:10;;;;;;;4.10;1.43;;;4.60;99.90;;;;;;5047027;28;20024;-84
2022/12/27 03:52:42;;;;;;;3.55;1.40;;;4.50;99.90;;;;;;5033149;28;20021;-84
2022/12/27 03:55:09;;;;;;;4.63;1.40;;;4.50;99.90;;;;;;5049865;28;20096;-84
2022/12/27 03:57:35;;;;;;;3.00;1.67;;;4.50;99.90;;;;;;5048371;28;20025;-83
2022/12/27 04:00:01;;;;;;;3.70;1.30;;;4.40;99.90;;;;;;5032836;28;20029;-83
2022/12/27 04:02:27;;;;;;;6.07;1.33;;;4.40;99.90;;;;;;5050042;28;20028;-83
2022/12/27 04:04:52;;;;;;;2.80;1.20;;;4.40;99.90;;;;;;5049790;28;20067;-83
2022/12/27 04:07:18;;;;;;;4.60;1.53;;;4.30;99.90;;;;;;5048702;28;20435;-83
2022/12/27 04:37:07;;;;;;;3.60;1.30;;;3.60;99.90;;;;;;5049450;28;20075;-84
2022/12/27 04:39:32;;;;;;;2.30;1.23;;;3.60;99.90;;;;;;5031727;28;20092;-84
2022/12/27 04:55:57;;;;;;;3.07;1.10;;;3.40;99.90;;;;;;5049547;28;20039;-83
2022/12/27 04:58:23;;;;;;;1.10;1.00;;;3.30;99.90;;;;;;5049563;28;20021;-84
2022/12/27 05:03:33;;;;;;;3.30;1.20;;;3.30;99.90;;;;;;5048786;28;20047;-83
2022/12/27 05:06:00;;;;;;;3.70;1.43;;;3.20;99.90;;;;;;5050194;28;20032;-84
2022/12/27 05:14:01;;;;;;;3.17;1.10;;;3.20;99.90;;;;;;5048175;28;20136;-83
2022/12/27 05:16:33;;;;;;;4.07;1.20;;;3.20;99.90;;;;;;5030356;28;20032;-86
2022/12/27 05:18:59;;;;;;;4.43;1.23;;;3.30;99.90;;;;;;5049022;28;20041;-86
2022/12/27 05:21:25;;;;;;;1.70;1.03;;;3.30;99.90;;;;;;5049050;28;20086;-87
2022/12/27 05:26:36;;;;;;;4.77;1.50;;;3.30;99.90;;;;;;5047628;28;20035;-87
2022/12/27 05:29:01;;;;;;;2.80;1.57;;;3.20;99.90;;;;;;5050445;28;20350;-87
2022/12/27 05:31:28;;;;;;;3.53;1.50;;;3.20;99.90;;;;;;5050451;28;20025;-87
2022/12/27 05:33:54;;;;;;;3.53;1.40;;;3.10;99.90;;;;;;5048865;28;20028;-87
2022/12/27 05:36:20;;;;;;;2.77;1.27;;;3.10;99.90;;;;;;5050695;28;20029;-87
2022/12/27 05:38:46;;;;;;;4.83;1.40;;;3.10;99.90;;;;;;5048718;28;20378;-87
2022/12/27 05:41:12;;;;;;;2.03;1.00;;;3.00;99.90;;;;;;5051947;28;20067;-88
2022/12/27 05:43:38;;;;;;;3.27;1.20;;;3.00;99.90;;;;;;5045995;28;20170;-88
2022/12/27 05:46:12;;;;;;;3.60;1.33;;;2.90;99.90;;;;;;5045652;28;20028;-88
2022/12/27 05:48:38;;;;;;;4.57;1.47;;;2.90;99.90;;;;;;5052128;28;20079;-87
2022/12/27 05:51:06;;;;;;;2.60;1.20;;;2.80;99.90;;;;;;5052530;28;20025;-88
2022/12/27 05:53:31;;;;;;;6.17;1.37;;;2.80;99.90;;;;;;5043583;28;20061;-87
2022/12/27 05:55:57;;;;;;;4.83;1.20;;;2.70;99.90;;;;;;5033812;28;20431;-88
2022/12/27 05:58:24;;;;;;;3.17;1.40;;;2.70;99.90;;;;;;5052038;28;20096;-88
2022/12/27 06:00:49;;;;;;;3.60;1.30;;;2.60;99.90;;;;;;5053082;28;20048;-87
2022/12/27 06:03:15;;;;;;;4.47;1.60;;;2.60;99.90;;;;;;5050540;28;20065;-87
2022/12/27 06:05:41;;;;;;;5.67;2.20;;;2.50;99.90;;;;;;5049891;28;20504;-86
2022/12/27 06:08:07;;;;;;;5.17;1.70;;;2.50;99.90;;;;;;5025029;28;20021;-87
2022/12/27 06:10:32;;;;;;;7.80;1.80;;;2.40;99.90;;;;;;5045015;28;20048;-87
2022/12/27 06:12:59;;;;;;;5.30;1.40;;;2.40;99.90;;;;;;5043943;28;20072;-87
2022/12/27 06:15:25;;;;;;;7.87;1.70;;;2.40;99.90;;;;;;5046528;28;20541;-87
2022/12/27 06:17:50;;;;;;;3.93;1.40;;;2.30;99.90;;;;;;5046596;28;20105;-87
2022/12/27 06:20:16;;;;;;;5.17;1.80;;;2.30;99.90;;;;;;5042582;28;20653;-87
2022/12/27 06:22:42;;;;;;;3.50;1.40;;;2.30;99.90;;;;;;5025410;28;20033;-87
2022/12/27 06:25:07;;;;;;;5.00;1.60;;;2.20;99.90;;;;;;5045059;28;20092;-87
2022/12/27 06:27:33;;;;;;;4.70;1.60;;;2.20;99.90;;;;;;5028569;28;20037;-87
2022/12/27 06:29:59;;;;;;;2.93;1.70;;;2.10;99.90;;;;;;5043234;28;20025;-87
2022/12/27 06:32:24;;;;;;;3.53;1.53;;;2.10;99.90;;;;;;5046029;28;20473;-87
2022/12/27 06:34:50;;;;;;;6.03;1.60;;;2.00;99.90;;;;;;5043141;28;20021;-87
2022/12/27 06:37:16;;;;;;;4.13;1.60;;;2.00;99.90;;;;;;5028507;28;20029;-85
2022/12/27 06:39:42;;;;;;;1.93;1.37;;;2.00;99.90;;;;;;5044631;28;20028;-87
2022/12/27 06:42:08;;;;;;;6.93;1.67;;;1.90;99.90;;;;;;5044492;28;20032;-87
2022/12/27 06:44:34;;;;;;;2.20;1.43;;;1.90;99.90;;;;;;5049075;28;20029;-87
2022/12/27 06:46:59;;;;;;;4.40;1.70;;;1.90;99.90;;;;;;5025692;28;20026;-87
2022/12/27 06:49:25;;;;;;;3.30;1.70;;;1.90;99.90;;;;;;5023245;28;20021;-87
2022/12/27 06:51:51;;;;;;;6.93;2.00;;;1.80;99.90;;;;;;5038568;28;20475;-87
2022/12/27 06:54:17;;;;;;;4.80;2.10;;;1.80;99.90;;;;;;5043163;28;20052;-87
2022/12/27 06:56:42;;;;;;;4.17;1.83;;;1.80;99.90;;;;;;5027286;28;20083;-85
2022/12/27 06:59:08;;;;;;;4.63;1.93;;;1.70;99.90;;;;;;5049505;28;20032;-84
2022/12/27 07:01:34;;;;;;;4.80;1.90;;;1.70;99.90;;;;;;5046951;28;20058;-83
2022/12/27 07:04:00;;;;;;;3.37;1.70;;;1.70;99.90;;;;;;5037583;28;20102;-86
2022/12/27 07:06:29;;;;;;;4.30;1.73;;;1.70;99.90;;;;;;5056302;28;20025;-83
2022/12/27 07:08:57;;;;;;;3.93;1.70;;;1.60;99.90;;;;;;5054227;28;20032;-83
2022/12/27 07:11:24;;;;;;;4.43;1.97;;;1.60;99.90;;;;;;5045218;28;20075;-83
2022/12/27 07:13:52;;;;;;;6.60;1.70;;;1.60;99.90;;;;;;5045815;28;20049;-82
2022/12/27 07:16:22;;;;;;;2.63;1.63;;;1.60;99.90;;;;;;5044178;28;20040;-81
2022/12/27 07:18:48;;;;;;;3.53;1.80;;;1.60;99.90;;;;;;5054564;28;20125;-83
2022/12/27 07:21:15;;;;;;;5.30;1.90;;;1.60;99.90;;;;;;5050245;28;20096;-81
2022/12/27 07:23:42;;;;;;;4.57;2.33;;;1.50;99.90;;;;;;5046003;28;20118;-79
2022/12/27 07:26:15;;;;;;;4.97;2.53;;;1.50;99.90;;;;;;5048217;28;20465;-81
2022/12/27 07:28:41;;;;;;;8.50;3.03;;;1.50;99.90;;;;;;5041734;28;20088;-81
2022/12/27 07:31:09;;;;;;;3.63;2.23;;;1.60;99.90;;;;;;5048918;28;20024;-81
2022/12/27 07:33:35;;;;;;;3.87;1.80;;;1.50;99.90;;;;;;5051991;28;20090;-83
2022/12/27 07:36:04;;;;;;;3.13;1.93;;;1.50;99.90;;;;;;5052600;28;20125;-82
2022/12/27 07:38:30;;;;;;;5.13;1.70;;;1.50;99.90;;;;;;5056251;28;20358;-83
2022/12/27 07:40:58;;;;;;;6.10;1.80;;;1.40;99.90;;;;;;5055828;28;20032;-81
2022/12/27 07:43:25;;;;;;;3.80;1.60;;;1.40;99.90;;;;;;5051943;28;21485;-81
2022/12/27 07:45:50;;;;;;;3.23;1.63;;;1.40;99.90;;;;;;5049716;28;20322;-81
2022/12/27 07:48:16;;;;;;;2.43;1.40;;;1.40;99.90;;;;;;5046095;28;20071;-80
2022/12/27 07:50:42;;;;;;;4.10;1.40;;;1.40;99.90;;;;;;5043941;28;20036;-80
2022/12/27 07:53:08;;;;;;;3.27;1.77;;;1.40;99.90;;;;;;5045563;28;20025;-81
2022/12/27 07:55:34;;;;;;;6.73;2.17;;;1.40;99.90;;;;;;5046961;28;20029;-80
2022/12/27 07:58:00;;;;;;;6.20;2.10;;;1.40;99.90;;;;;;5046159;28;20025;-81
2022/12/27 08:00:28;;;;;;;6.30;2.20;;;1.40;99.90;;;;;;5048605;28;20032;-80
2022/12/27 08:02:53;;;;;;;5.30;2.80;;;1.40;99.90;;;;;;5047670;28;20032;-80
2022/12/27 08:05:19;;;;;;;7.50;3.30;;;1.40;99.90;;;;;;5045517;28;20026;-80
2022/12/27 08:07:44;;;;;;;5.70;2.23;;;1.40;99.90;;;;;;5043898;28;20022;-81
2022/12/27 08:10:10;;;;;;;7.53;3.17;;;1.40;99.90;;;;;;5046776;28;20461;-80
2022/12/27 08:12:35;;;;;;;3.37;1.93;;;1.40;99.90;;;;;;5044398;28;20429;-80
2022/12/27 08:15:01;;;;;;;4.40;2.30;;;1.50;99.90;;;;;;5026079;28;20025;-80
2022/12/27 08:17:27;;;;;;;3.70;2.00;;;1.50;99.90;;;;;;5030901;28;20330;-80
2022/12/27 08:19:54;;;;;;;4.00;1.80;;;1.60;99.90;;;;;;5045393;28;20429;-80
2022/12/27 08:22:20;;;;;;;4.20;2.33;;;1.60;99.90;;;;;;5048899;28;20025;-81
2022/12/27 08:24:46;;;;;;;4.17;2.13;;;1.70;99.90;;;;;;5046539;28;20017;-80
2022/12/27 08:27:18;;;;;;;3.57;1.63;;;1.70;99.90;;;;;;5029097;28;20090;-80
2022/12/27 08:29:44;;;;;;;5.73;1.90;;;1.80;99.90;;;;;;5039177;28;20013;-81
2022/12/27 08:32:09;;;;;;;5.63;2.00;;;1.80;99.90;;;;;;5025542;28;20089;-82
2022/12/27 08:34:35;;;;;;;6.37;1.80;;;1.90;99.90;;;;;;5043038;28;20519;-80
2022/12/27 08:37:00;;;;;;;6.10;2.00;;;2.00;99.90;;;;;;5046370;28;20025;-82
2022/12/27 08:39:26;;;;;;;8.60;2.57;;;2.00;99.90;;;;;;5043185;28;20039;-80
2022/12/27 08:41:52;;;;;;;2.87;1.53;;;2.10;99.90;;;;;;5044403;28;20064;-81
2022/12/27 08:44:18;;;;;;;2.53;1.70;;;2.10;99.90;;;;;;5043524;28;20483;-81
2022/12/27 08:46:44;;;;;;;4.43;1.80;;;2.20;99.90;;;;;;5045903;28;20101;-81
2022/12/27 08:49:09;;;;;;;4.50;1.90;;;2.30;99.90;;;;;;5030039;28;20040;-79
2022/12/27 08:51:35;;;;;;;6.90;1.80;;;2.30;99.90;;;;;;5040316;28;20401;-80
2022/12/27 08:54:01;;;;;;;4.80;2.23;;;2.40;99.90;;;;;;5043955;28;20056;-79
2022/12/27 08:56:26;;;;;;;4.03;1.90;;;2.40;99.90;;;;;;5044051;28;20020;-79
2022/12/27 08:58:54;;;;;;;6.67;2.00;;;2.60;99.90;;;;;;5050286;28;20021;-80
2022/12/27 09:01:20;;;;;;;4.47;1.97;;;2.60;99.90;;;;;;5034583;28;20040;-80
2022/12/27 09:03:47;;;;;;;4.37;1.97;;;2.70;99.90;;;;;;5054903;28;20025;-80
2022/12/27 09:06:20;;;;;;;5.80;1.97;;;2.80;99.90;;;;;;5054825;28;20018;-79
2022/12/27 09:08:47;;;;;;;3.33;1.70;;;2.90;99.90;;;;;;5049266;28;20026;-80
2022/12/27 09:11:15;;;;;;;5.67;2.00;;;3.10;99.90;;;;;;5053274;28;20033;-80
2022/12/27 09:13:41;;;;;;;4.63;2.37;;;3.10;99.90;;;;;;5052418;28;20128;-79
2022/12/27 09:16:10;;;;;;;3.80;2.03;;;3.20;99.90;;;;;;5029947;28;20048;-79
2022/12/27 09:18:37;;;;;;;6.30;1.90;;;3.30;99.90;;;;;;5041370;28;20053;-80
2022/12/27 09:21:10;;;;;;;5.50;2.47;;;3.40;99.90;;;;;;5051378;28;20037;-80
2022/12/27 09:23:37;;;;;;;4.20;1.93;;;3.50;99.90;;;;;;5049706;28;20027;-80
2022/12/27 09:26:10;;;;;;;5.00;1.93;;;3.60;99.90;;;;;;5033515;28;20104;-80
2022/12/27 09:28:36;;;;;;;4.30;2.00;;;3.70;99.90;;;;;;5045077;28;20029;-80
2022/12/27 09:31:02;;;;;;;3.97;1.80;;;3.80;99.90;;;;;;5045847;28;20032;-80
2022/12/27 09:33:28;;;;;;;4.47;1.90;;;3.80;99.90;;;;;;5032282;28;20025;-80
2022/12/27 09:36:04;;;;;;;3.30;1.70;;;3.90;99.90;;;;;;5030532;28;20025;-81
2022/12/27 09:38:30;;;;;;;2.63;1.33;;;4.00;99.90;;;;;;5042965;28;20025;-81
2022/12/27 09:40:58;;;;;;;3.90;1.50;;;4.10;99.90;;;;;;5043619;28;20032;-81
2022/12/27 09:43:50;;;;;;;2.20;1.50;;;4.10;99.90;;;;;;5038143;28;20348;-81
2022/12/27 09:46:23;;;;;;;2.77;1.40;;;4.20;99.90;;;;;;5030193;28;20147;-81
2022/12/27 09:48:51;;;;;;;5.07;1.73;;;4.30;99.90;;;;;;5033979;28;20105;-81
2022/12/27 09:51:25;;;;;;;4.43;1.30;;;4.30;99.90;;;;;;5035633;28;20025;-81
2022/12/27 09:54:16;;;;;;;2.53;1.30;;;4.40;99.90;;;;;;5051612;28;20050;-81
2022/12/27 09:56:42;;;;;;;4.73;1.47;;;4.40;99.90;;;;;;5038526;28;20056;-81
2022/12/27 09:59:25;;;;;;;3.13;1.23;;;4.50;99.90;;;;;;5033927;28;20030;-81
2022/12/27 10:01:50;;;;;;;3.23;1.50;;;4.50;99.90;;;;;;5022326;28;20370;-81
2022/12/27 10:04:17;;;;;;;2.97;1.50;;;4.60;99.90;;;;;;5052105;28;20021;-81
2022/12/27 10:07:04;;;;;;;4.67;1.50;;;4.70;99.90;;;;;;5053401;28;20096;-81
2022/12/27 10:09:45;;;;;;;3.27;1.30;;;4.80;99.90;;;;;;5048637;28;20040;-81
2022/12/27 10:12:28;;;;;;;4.23;1.20;;;4.90;99.90;;;;;;5050159;28;20021;-82
2022/12/27 10:15:12;;;;;;;4.80;1.30;;;5.10;99.90;;;;;;5043611;28;20041;-82
2022/12/27 10:18:04;;;;;;;2.53;1.43;;;5.30;99.90;;;;;;5043424;28;20025;-81
2022/12/27 10:20:51;;;;;;;2.23;1.20;;;5.60;99.90;;;;;;5034149;28;20033;-82
2022/12/27 10:23:22;;;;;;;1.97;1.13;;;5.80;99.90;;;;;;5042545;28;20342;-82
2022/12/27 10:25:55;;;;;;;4.67;1.10;;;5.90;99.90;;;;;;5037344;28;20028;-82
2022/12/27 10:28:28;;;;;;;2.17;1.33;;;6.00;99.90;;;;;;5046311;28;20021;-82
2022/12/27 10:30:54;;;;;;;2.90;0.90;;;6.00;99.90;;;;;;5050231;28;20017;-82
2022/12/27 10:33:32;;;;;;;2.33;1.07;;;6.00;99.90;;;;;;5050190;28;20025;-82
2022/12/27 10:36:00;;;;;;;4.00;1.10;;;6.10;99.90;;;;;;5047803;28;20034;-82
2022/12/27 10:38:32;;;;;;;2.10;1.00;;;6.10;99.90;;;;;;5030619;28;20540;-82
2022/12/27 10:41:28;;;;;;;2.00;1.00;;;6.10;99.90;;;;;;5052193;28;20040;-82
2022/12/27 10:43:54;;;;;;;1.50;0.90;;;6.10;99.90;;;;;;5050117;28;20025;-82
2022/12/27 10:46:28;;;;;;;1.90;0.90;;;6.00;99.90;;;;;;5045715;28;20081;-82
2022/12/27 10:49:04;;;;;;;3.63;1.40;;;6.00;99.90;;;;;;5033771;28;20082;-82
2022/12/27 10:51:38;;;;;;;3.73;1.13;;;6.00;99.90;;;;;;5041140;28;20102;-82
2022/12/27 10:54:12;;;;;;;1.67;1.00;;;6.00;99.90;;;;;;5047214;28;20030;-82
2022/12/27 10:56:40;;;;;;;3.25;1.05;;;6.00;99.90;;;;;;5039039;28;20020;-82
2022/12/27 10:59:22;;;;;;;5.60;1.37;;;6.00;99.90;;;;;;5034819;28;20029;-82
2022/12/27 11:02:00;;;;;;;5.00;1.07;;;6.00;99.90;;;;;;5035324;28;20463;-82
2022/12/27 11:04:27;;;;;;;2.07;1.20;;;6.10;99.90;;;;;;5052440;28;20381;-82
2022/12/27 11:07:17;;;;;;;2.70;1.00;;;6.10;99.90;;;;;;5049193;28;21515;-82
2022/12/27 11:09:44;;;;;;;1.97;1.07;;;6.10;99.90;;;;;;5032647;28;20378;-82
2022/12/27 11:12:20;;;;;;;2.33;1.00;;;6.10;99.90;;;;;;5042587;28;20033;-82
2022/12/27 11:14:58;;;;;;;4.67;1.10;;;6.10;99.90;;;;;;5052420;28;20133;-82
2022/12/27 11:17:35;;;;;;;2.80;1.00;;;6.20;99.90;;;;;;5043682;28;20044;-82
2022/12/27 11:20:24;;;;;;;2.17;1.07;;;6.20;99.90;;;;;;5032870;28;20029;-82
2022/12/27 11:22:54;;;;;;;2.10;1.10;;;6.20;99.90;;;;;;5031431;28;20144;-82
2022/12/27 11:25:20;;;;;;;4.20;1.20;;;6.20;99.90;;;;;;5046648;28;20040;-82
2022/12/27 11:27:52;;;;;;;2.23;1.10;;;6.30;99.90;;;;;;5052530;28;20025;-81
2022/12/27 11:30:25;;;;;;;1.77;1.00;;;6.30;99.90;;;;;;5052752;28;20084;-82
2022/12/27 11:32:52;;;;;;;3.60;1.50;;;6.40;99.90;;;;;;5032741;28;20052;-82
2022/12/27 11:35:20;;;;;;;3.87;1.43;;;6.40;99.90;;;;;;5029940;28;20048;-82
2022/12/27 11:37:47;;;;;;;2.73;1.13;;;6.50;99.90;;;;;;5052934;28;20412;-82
2022/12/27 11:40:24;;;;;;;2.37;0.93;;;6.50;99.90;;;;;;5034543;28;20055;-82
2022/12/27 11:43:06;;;;;;;2.40;1.10;;;6.60;99.90;;;;;;5052569;28;20086;-82
2022/12/27 11:45:42;;;;;;;3.10;0.93;;;6.60;99.90;;;;;;5052493;28;20025;-82
2022/12/27 11:48:24;;;;;;;3.07;0.97;;;6.60;99.90;;;;;;5052735;28;20017;-81
2022/12/27 11:51:03;;;;;;;2.33;0.90;;;6.50;99.90;;;;;;5034402;28;20032;-81
2022/12/27 11:53:46;;;;;;;3.97;1.20;;;6.50;99.90;;;;;;5032522;28;20108;-80
2022/12/27 11:56:21;;;;;;;3.43;1.43;;;6.60;99.90;;;;;;5044048;28;20047;-81
2022/12/27 11:59:20;;;;;;;3.17;1.10;;;6.50;99.90;;;;;;5040902;28;20017;-80
2022/12/27 12:02:05;;;;;;;4.50;1.03;;;6.50;99.90;;;;;;5044576;28;20025;-81
2022/12/27 12:04:46;;;;;;;2.73;1.20;;;6.50;99.90;;;;;;5053737;28;20022;-81
2022/12/27 12:07:35;;;;;;;2.97;1.30;;;6.50;99.90;;;;;;5056017;28;20028;-81
2022/12/27 12:10:19;;;;;;;3.53;1.43;;;6.60;99.90;;;;;;5039182;28;20049;-81
2022/12/27 12:13:22;;;;;;;4.93;1.30;;;6.60;99.90;;;;;;5055908;28;20021;-81
2022/12/27 12:16:17;;;;;;;2.13;1.20;;;6.60;99.90;;;;;;5055785;28;20017;-80
2022/12/27 12:19:05;;;;;;;4.33;1.50;;;6.60;99.90;;;;;;5044460;28;20565;-81
2022/12/27 12:21:39;;;;;;;2.70;1.30;;;6.60;99.90;;;;;;5054186;28;20021;-81
2022/12/27 12:24:32;;;;;;;4.93;1.50;;;6.60;99.90;;;;;;5026362;28;20025;-80
2022/12/27 12:27:09;;;;;;;4.50;2.00;;;6.60;99.90;;;;;;5035683;28;20022;-81
2022/12/27 12:30:08;;;;;;;3.23;1.27;;;6.60;99.90;;;;;;5035606;28;20037;-81
2022/12/27 12:32:58;;;;;;;8.17;1.60;;;6.50;99.90;;;;;;5039994;28;20013;-81
2022/12/27 12:35:48;;;;;;;3.43;1.30;;;6.50;99.90;;;;;;5035796;28;20438;-81
2022/12/27 12:38:20;;;;;;;4.67;1.50;;;6.50;99.90;;;;;;5046345;28;20021;-81
2022/12/27 12:41:00;;;;;;;2.80;1.53;;;6.40;99.90;;;;;;5055376;28;20028;-81
2022/12/27 12:43:47;;;;;;;4.93;1.50;;;6.50;99.90;;;;;;5055489;28;20450;-81
2022/12/27 12:46:26;;;;;;;7.60;1.60;;;6.50;99.90;;;;;;5055508;28;20032;-80
2022/12/27 12:49:05;;;;;;;2.83;1.40;;;6.50;99.90;;;;;;5055263;28;20021;-80
2022/12/27 12:51:44;;;;;;;4.33;1.60;;;6.50;99.90;;;;;;5055421;28;20092;-80
2022/12/27 12:54:35;;;;;;;4.60;1.40;;;6.50;99.90;;;;;;5055373;28;20040;-80
2022/12/27 12:57:03;;;;;;;2.57;1.37;;;6.50;99.90;;;;;;5054018;28;20331;-80
2022/12/27 12:59:37;;;;;;;5.60;1.40;;;6.60;99.90;;;;;;5049696;28;20459;-80
2022/12/27 13:02:15;;;;;;;4.50;1.48;;;6.60;99.90;;;;;;5055008;28;20078;-80
2022/12/27 13:04:48;;;;;;;5.57;1.40;;;6.70;99.90;;;;;;5055242;28;20029;-80
2022/12/27 13:07:25;;;;;;;7.33;1.50;;;6.70;99.90;;;;;;5035153;28;20033;-80
2022/12/27 13:10:29;;;;;;;3.63;1.43;;;6.80;99.90;;;;;;5035053;28;20033;-80
2022/12/27 13:13:05;;;;;;;5.23;1.57;;;6.90;99.90;;;;;;5034622;28;20052;-80
2022/12/27 13:15:38;;;;;;;8.33;1.40;;;6.90;99.90;;;;;;5018706;28;20407;-80
2022/12/27 13:18:18;;;;;;;2.60;1.20;;;7.00;99.90;;;;;;5054540;28;20116;-80
2022/12/27 13:21:08;;;;;;;4.27;1.40;;;7.00;99.90;;;;;;5037189;28;20057;-80
2022/12/27 13:23:55;;;;;;;4.53;1.30;;;7.00;99.90;;;;;;5031541;28;20100;-81
2022/12/27 13:26:33;;;;;;;5.17;1.30;;;7.00;99.90;;;;;;5030504;28;20036;-85
2022/12/27 13:29:17;;;;;;;3.10;1.40;;;7.10;99.90;;;;;;5048811;28;20088;-80
2022/12/27 13:32:10;;;;;;;4.50;1.20;;;7.10;99.90;;;;;;5042446;28;20025;-80
2022/12/27 13:34:40;;;;;;;2.23;1.13;;;7.20;99.90;;;;;;5042564;28;20029;-80
2022/12/27 13:37:31;;;;;;;2.57;1.10;;;7.00;99.90;;;;;;5042021;28;20401;-81
2022/12/27 13:40:26;;;;;;;5.17;1.50;;;6.90;99.90;;;;;;5041647;28;20021;-81
2022/12/27 13:43:11;;;;;;;1.63;1.13;;;6.90;99.90;;;;;;5043318;28;20497;-81
2022/12/27 13:46:14;;;;;;;3.75;1.40;;;6.80;99.90;;;;;;5040932;28;20103;-81
2022/12/27 13:49:01;;;;;;;3.03;1.27;;;6.70;99.90;;;;;;5029352;28;20140;-82
2022/12/27 13:51:54;;;;;;;4.37;1.30;;;6.60;99.90;;;;;;5039128;28;20021;-80
2022/12/27 13:54:35;;;;;;;2.67;1.27;;;6.50;99.90;;;;;;5034070;28;20108;-80
2022/12/27 13:57:35;;;;;;;3.80;1.50;;;6.40;99.90;;;;;;5033850;28;20048;-80
2022/12/27 14:00:19;;;;;;;2.87;1.40;;;6.30;99.90;;;;;;5045591;28;20075;-81
2022/12/27 14:03:01;;;;;;;3.10;1.30;;;6.30;99.90;;;;;;5024895;28;20037;-81
2022/12/27 14:06:13;;;;;;;3.07;1.47;;;6.20;99.90;;;;;;5037669;28;20113;-80
2022/12/27 14:08:50;;;;;;;3.67;1.53;;;6.20;99.90;;;;;;4972586;28;20026;-80
2022/12/27 14:11:38;;;;;;;6.77;1.80;;;6.20;99.90;;;;;;4956509;28;20029;-80
2022/12/27 14:14:09;;;;;;;4.80;1.57;;;6.10;99.90;;;;;;4981486;28;20057;-79
2022/12/27 14:16:50;;;;;;;4.73;1.80;;;6.10;99.90;;;;;;5054503;28;20047;-79
2022/12/27 14:19:25;;;;;;;5.67;1.57;;;6.10;99.90;;;;;;5037528;28;20049;-78
2022/12/27 14:22:15;;;;;;;5.30;1.80;;;6.00;99.90;;;;;;5043779;28;20025;-79
2022/12/27 14:24:59;;;;;;;4.13;1.90;;;6.00;99.90;;;;;;5033294;28;20116;-80
2022/12/27 14:28:07;;;;;;;3.67;1.80;;;6.00;99.90;;;;;;5015392;28;20167;-80
2022/12/27 14:31:15;;;;;;;8.33;3.17;;;5.90;99.90;;;;;;5033594;28;20432;-80
2022/12/27 14:33:44;;;;;;;5.57;2.47;;;5.80;99.90;;;;;;5047614;28;20028;-80
2022/12/27 14:36:43;;;;;;;5.90;2.10;;;5.80;99.90;;;;;;5035424;28;20458;-80
2022/12/27 14:39:45;;;;;;;6.73;2.60;;;5.70;99.90;;;;;;5032076;28;20025;-80
2022/12/27 14:42:35;;;;;;;5.97;2.00;;;5.60;99.90;;;;;;5033259;28;20055;-80
2022/12/27 14:45:18;;;;;;;6.50;2.10;;;5.60;99.90;;;;;;5049564;28;20366;-81
2022/12/27 14:48:01;;;;;;;6.33;2.20;;;5.50;99.90;;;;;;5033432;28;20040;-81
2022/12/27 14:50:35;;;;;;;6.73;1.70;;;5.50;99.90;;;;;;5037187;28;20195;-82
2022/12/27 14:53:35;;;;;;;5.35;1.95;;;5.40;99.90;;;;;;5031762;28;20033;-81
2022/12/27 14:56:02;;;;;;;4.37;2.13;;;5.30;99.90;;;;;;5033278;28;20033;-81
2022/12/27 14:58:51;;;;;;;5.40;2.40;;;5.30;99.90;;;;;;5032978;28;20435;-81
2022/12/27 15:01:47;;;;;;;5.30;2.40;;;5.20;99.90;;;;;;5040755;28;20075;-81
2022/12/27 15:04:34;;;;;;;4.60;2.20;;;5.20;99.90;;;;;;5053353;28;20021;-81
2022/12/27 15:07:23;;;;;;;5.30;2.53;;;5.20;99.90;;;;;;5018005;28;20044;-81
2022/12/27 15:10:13;;;;;;;4.97;2.50;;;5.10;99.90;;;;;;5049886;28;20104;-81